createdAt,value
2018-03-18T00:00:57.280Z,0
2018-03-18T00:01:57.035Z,4
2018-03-18T00:02:57.302Z,4
2018-03-18T00:03:57.311Z,0
2018-03-18T00:04:57.066Z,0
2018-03-18T00:05:57.594Z,4
2018-03-18T00:06:57.604Z,4
2018-03-18T00:07:57.124Z,0
2018-03-18T00:08:57.371Z,4
2018-03-18T00:09:57.404Z,4
2018-03-18T00:10:57.398Z,0
2018-03-18T00:11:57.659Z,4
2018-03-18T00:12:57.418Z,0
2018-03-18T00:13:57.676Z,4
2018-03-18T00:14:57.690Z,4
2018-03-18T00:15:57.448Z,0
2018-03-18T00:16:57.203Z,0
2018-03-18T00:17:57.475Z,0
2018-03-18T00:18:57.480Z,0
2018-03-18T00:19:57.498Z,0
2018-03-18T00:20:57.268Z,4
2018-03-18T00:21:57.566Z,0
2018-03-18T00:22:57.279Z,4
2018-03-18T00:23:57.546Z,4
2018-03-18T00:24:57.807Z,0
2018-03-18T00:25:57.564Z,0
2018-03-18T00:26:57.330Z,0
2018-03-18T00:27:57.606Z,4
2018-03-18T00:28:57.612Z,4
2018-03-18T00:29:57.620Z,0
2018-03-18T00:30:57.632Z,0
2018-03-18T00:31:57.655Z,4
2018-03-18T00:32:57.653Z,0
2018-03-18T00:33:57.668Z,4
2018-03-18T00:34:57.682Z,0
2018-03-18T00:35:57.947Z,4
2018-03-18T00:36:57.712Z,4
2018-03-18T00:37:57.970Z,0
2018-03-18T00:38:57.774Z,0
2018-03-18T00:39:57.487Z,4
2018-03-18T00:40:58.011Z,4
2018-03-18T00:41:57.761Z,0
2018-03-18T00:42:58.031Z,4
2018-03-18T00:43:58.041Z,0
2018-03-18T00:44:57.549Z,0
2018-03-18T00:45:57.831Z,0
2018-03-18T00:46:57.588Z,4
2018-03-18T00:47:57.827Z,4
2018-03-18T00:48:57.843Z,4
2018-03-18T00:49:57.860Z,4
2018-03-18T00:50:58.122Z,0
2018-03-18T00:51:58.132Z,0
2018-03-18T00:52:57.896Z,0
2018-03-18T00:53:57.903Z,0
2018-03-18T00:54:58.174Z,0
2018-03-18T00:55:57.930Z,0
2018-03-18T00:56:58.193Z,0
2018-03-18T00:57:57.958Z,0
2018-03-18T00:58:58.368Z,0
2018-03-18T00:59:58.229Z,0
2018-03-18T01:00:57.733Z,0
2018-03-18T01:01:58.001Z,0
2018-03-18T01:02:58.027Z,0
2018-03-18T01:03:57.768Z,0
2018-03-18T01:04:58.035Z,0
2018-03-18T01:05:58.053Z,0
2018-03-18T01:06:58.312Z,0
2018-03-18T01:07:58.075Z,0
2018-03-18T01:08:58.338Z,0
2018-03-18T01:09:57.840Z,0
2018-03-18T01:10:58.112Z,0
2018-03-18T01:11:58.119Z,0
2018-03-18T01:12:58.135Z,0
2018-03-18T01:13:58.192Z,0
2018-03-18T01:14:58.151Z,0
2018-03-18T01:15:58.172Z,0
2018-03-18T01:16:58.436Z,0
2018-03-18T01:17:58.444Z,0
2018-03-18T01:18:58.459Z,0
2018-03-18T01:19:57.961Z,0
2018-03-18T01:20:58.483Z,0
2018-03-18T01:21:58.249Z,4
2018-03-18T01:22:57.993Z,4
2018-03-18T01:23:58.523Z,0
2018-03-18T01:24:58.279Z,0
2018-03-18T01:25:58.288Z,0
2018-03-18T01:26:58.320Z,0
2018-03-18T01:27:58.318Z,0
2018-03-18T01:28:58.643Z,0
2018-03-18T01:29:58.339Z,0
2018-03-18T01:30:58.604Z,0
2018-03-18T01:31:58.616Z,0
2018-03-18T01:32:58.374Z,0
2018-03-18T01:33:58.388Z,0
2018-03-18T01:34:58.657Z,0
2018-03-18T01:35:58.417Z,0
2018-03-18T01:36:58.430Z,0
2018-03-18T01:37:58.438Z,0
2018-03-18T01:38:58.447Z,0
2018-03-18T01:39:58.712Z,0
2018-03-18T01:40:58.727Z,4
2018-03-18T01:41:58.734Z,0
2018-03-18T01:42:58.546Z,0
2018-03-18T01:43:58.517Z,0
2018-03-18T01:44:58.775Z,0
2018-03-18T01:45:58.530Z,0
2018-03-18T01:46:58.598Z,0
2018-03-18T01:47:58.805Z,0
2018-03-18T01:48:58.581Z,0
2018-03-18T01:49:58.836Z,0
2018-03-18T01:50:58.338Z,0
2018-03-18T01:51:58.606Z,0
2018-03-18T01:52:58.353Z,0
2018-03-18T01:53:58.369Z,0
2018-03-18T01:54:58.886Z,0
2018-03-18T01:55:58.903Z,0
2018-03-18T01:56:58.406Z,0
2018-03-18T01:57:58.952Z,0
2018-03-18T01:58:58.196Z,0
2018-03-18T01:59:58.455Z,0
2018-03-18T02:00:58.708Z,0
2018-03-18T02:01:58.978Z,4
2018-03-18T02:02:58.984Z,0
2018-03-18T02:03:58.742Z,0
2018-03-18T02:04:58.765Z,0
2018-03-18T02:05:59.024Z,0
2018-03-18T02:06:59.035Z,0
2018-03-18T02:07:58.844Z,4
2018-03-18T02:08:59.062Z,0
2018-03-18T02:09:58.815Z,0
2018-03-18T02:10:59.093Z,4
2018-03-18T02:11:58.897Z,0
2018-03-18T02:12:59.109Z,0
2018-03-18T02:13:58.919Z,0
2018-03-18T02:14:58.627Z,0
2018-03-18T02:15:58.887Z,0
2018-03-18T02:16:58.908Z,0
2018-03-18T02:17:58.916Z,0
2018-03-18T02:18:59.180Z,0
2018-03-18T02:19:58.947Z,0
2018-03-18T02:20:58.946Z,0
2018-03-18T02:21:59.217Z,0
2018-03-18T02:22:59.232Z,0
2018-03-18T02:23:59.260Z,0
2018-03-18T02:24:59.092Z,4
2018-03-18T02:25:59.032Z,4
2018-03-18T02:26:58.511Z,4
2018-03-18T02:27:59.279Z,0
2018-03-18T02:28:59.036Z,4
2018-03-18T02:29:59.097Z,4
2018-03-18T02:30:59.333Z,0
2018-03-18T02:31:59.088Z,0
2018-03-18T02:32:59.104Z,4
2018-03-18T02:33:59.350Z,4
2018-03-18T02:34:59.344Z,0
2018-03-18T02:35:59.101Z,4
2018-03-18T02:36:58.891Z,4
2018-03-18T02:37:59.409Z,4
2018-03-18T02:38:59.421Z,4
2018-03-18T02:39:59.180Z,4
2018-03-18T02:40:59.501Z,4
2018-03-18T02:41:59.201Z,4
2018-03-18T02:42:59.468Z,4
2018-03-18T02:43:59.474Z,4
2018-03-18T02:44:59.280Z,4
2018-03-18T02:45:59.265Z,4
2018-03-18T02:46:59.505Z,4
2018-03-18T02:47:59.519Z,4
2018-03-18T02:48:59.553Z,4
2018-03-18T02:49:59.303Z,4
2018-03-18T02:50:59.301Z,4
2018-03-18T02:51:59.569Z,4
2018-03-18T02:52:59.609Z,4
2018-03-18T02:53:59.353Z,4
2018-03-18T02:54:59.337Z,4
2018-03-18T02:55:59.618Z,4
2018-03-18T02:56:59.628Z,4
2018-03-18T02:57:59.634Z,4
2018-03-18T02:58:59.691Z,4
2018-03-18T02:59:59.143Z,4
2018-03-18T03:00:59.662Z,4
2018-03-18T03:01:59.427Z,4
2018-03-18T03:02:59.682Z,4
2018-03-18T03:03:59.461Z,4
2018-03-18T03:04:59.196Z,4
2018-03-18T03:05:59.723Z,4
2018-03-18T03:06:59.736Z,4
2018-03-18T03:07:59.749Z,4
2018-03-18T03:08:59.526Z,4
2018-03-18T03:09:59.265Z,4
2018-03-18T03:10:59.525Z,4
2018-03-18T03:11:59.534Z,4
2018-03-18T03:12:59.544Z,4
2018-03-18T03:13:59.556Z,4
2018-03-18T03:14:59.821Z,4
2018-03-18T03:15:59.330Z,4
2018-03-18T03:16:59.860Z,4
2018-03-18T03:17:59.856Z,4
2018-03-18T03:18:59.610Z,4
2018-03-18T03:19:59.622Z,4
2018-03-18T03:20:59.636Z,4
2018-03-18T03:21:59.649Z,4
2018-03-18T03:22:59.655Z,4
2018-03-18T03:23:59.670Z,4
2018-03-18T03:24:59.685Z,4
2018-03-18T03:25:59.709Z,4
2018-03-18T03:26:59.705Z,8
2018-03-18T03:27:59.969Z,8
2018-03-18T03:28:59.998Z,4
2018-03-18T03:29:59.743Z,4
2018-03-18T03:30:59.773Z,4
2018-03-18T03:31:59.772Z,4
2018-03-18T03:32:59.787Z,4
2018-03-18T03:33:59.835Z,4
2018-03-18T03:34:59.791Z,4
2018-03-18T03:36:00.061Z,4
2018-03-18T03:37:00.072Z,4
2018-03-18T03:37:59.825Z,4
2018-03-18T03:39:00.108Z,4
2018-03-18T03:40:00.224Z,4
2018-03-18T03:40:59.866Z,4
2018-03-18T03:42:00.141Z,4
2018-03-18T03:42:59.888Z,4
2018-03-18T03:44:00.236Z,4
2018-03-18T03:45:00.162Z,4
2018-03-18T03:45:59.924Z,4
2018-03-18T03:46:59.929Z,4
2018-03-18T03:47:59.944Z,4
2018-03-18T03:49:00.002Z,4
2018-03-18T03:49:59.967Z,4
2018-03-18T03:50:59.720Z,4
2018-03-18T03:52:00.242Z,4
2018-03-18T03:53:00.247Z,4
2018-03-18T03:54:00.012Z,4
2018-03-18T03:54:59.772Z,4
2018-03-18T03:56:00.296Z,4
2018-03-18T03:57:00.301Z,4
2018-03-18T03:58:00.050Z,4
2018-03-18T03:58:59.810Z,4
2018-03-18T04:00:00.072Z,4
2018-03-18T04:01:00.090Z,4
2018-03-18T04:02:00.350Z,4
2018-03-18T04:03:00.107Z,4
2018-03-18T04:04:00.384Z,4
2018-03-18T04:05:00.133Z,4
2018-03-18T04:05:59.904Z,4
2018-03-18T04:07:00.418Z,4
2018-03-18T04:08:00.171Z,4
2018-03-18T04:08:59.941Z,4
2018-03-18T04:10:00.187Z,4
2018-03-18T04:10:59.687Z,4
2018-03-18T04:12:00.206Z,4
2018-03-18T04:13:00.218Z,4
2018-03-18T04:13:59.980Z,4
2018-03-18T04:15:00.241Z,4
2018-03-18T04:16:00.253Z,4
2018-03-18T04:17:00.528Z,4
2018-03-18T04:18:00.537Z,4
2018-03-18T04:19:00.547Z,4
2018-03-18T04:20:00.310Z,4
2018-03-18T04:20:59.828Z,4
2018-03-18T04:22:00.638Z,4
2018-03-18T04:23:00.385Z,4
2018-03-18T04:24:00.601Z,4
2018-03-18T04:25:00.107Z,4
2018-03-18T04:26:00.617Z,4
2018-03-18T04:27:00.387Z,4
2018-03-18T04:28:00.664Z,4
2018-03-18T04:29:00.151Z,4
2018-03-18T04:30:00.416Z,4
2018-03-18T04:31:00.425Z,4
2018-03-18T04:32:00.181Z,4
2018-03-18T04:33:00.190Z,4
2018-03-18T04:34:00.477Z,4
2018-03-18T04:35:00.724Z,4
2018-03-18T04:36:00.225Z,4
2018-03-18T04:37:00.744Z,4
2018-03-18T04:38:00.563Z,4
2018-03-18T04:39:00.514Z,4
2018-03-18T04:40:00.783Z,4
2018-03-18T04:41:00.543Z,4
2018-03-18T04:42:00.816Z,4
2018-03-18T04:43:00.573Z,4
2018-03-18T04:44:00.331Z,4
2018-03-18T04:45:00.580Z,4
2018-03-18T04:46:00.848Z,4
2018-03-18T04:47:00.855Z,4
2018-03-18T04:48:00.869Z,8
2018-03-18T04:49:00.628Z,4
2018-03-18T04:50:00.641Z,4
2018-03-18T04:51:00.652Z,8
2018-03-18T04:52:01.027Z,4
2018-03-18T04:53:00.677Z,8
2018-03-18T04:54:00.954Z,8
2018-03-18T04:55:00.954Z,8
2018-03-18T04:56:00.455Z,8
2018-03-18T04:57:00.725Z,4
2018-03-18T04:58:00.478Z,4
2018-03-18T04:59:01.015Z,4
2018-03-18T05:00:00.767Z,4
2018-03-18T05:01:00.758Z,4
2018-03-18T05:02:00.784Z,8
2018-03-18T05:03:00.775Z,8
2018-03-18T05:04:00.798Z,8
2018-03-18T05:05:01.052Z,8
2018-03-18T05:06:00.814Z,8
2018-03-18T05:07:01.128Z,12
2018-03-18T05:08:01.090Z,12
2018-03-18T05:09:01.153Z,16
2018-03-18T05:10:00.857Z,16
2018-03-18T05:11:00.616Z,16
2018-03-18T05:12:00.884Z,20
2018-03-18T05:13:00.887Z,20
2018-03-18T05:14:00.910Z,24
2018-03-18T05:15:00.663Z,28
2018-03-18T05:16:00.671Z,32
2018-03-18T05:17:00.685Z,36
2018-03-18T05:18:01.208Z,40
2018-03-18T05:19:00.709Z,44
2018-03-18T05:20:00.721Z,48
2018-03-18T05:21:01.234Z,56
2018-03-18T05:22:00.741Z,64
2018-03-18T05:23:01.003Z,72
2018-03-18T05:24:00.810Z,80
2018-03-18T05:25:01.279Z,88
2018-03-18T05:26:01.288Z,104
2018-03-18T05:27:01.302Z,120
2018-03-18T05:28:01.309Z,136
2018-03-18T05:29:01.091Z,156
2018-03-18T05:30:01.343Z,180
2018-03-18T05:31:01.351Z,192
2018-03-18T05:32:01.358Z,220
2018-03-18T05:33:01.364Z,252
2018-03-18T05:34:01.128Z,272
2018-03-18T05:35:01.141Z,308
2018-03-18T05:36:01.160Z,336
2018-03-18T05:37:01.152Z,372
2018-03-18T05:38:00.916Z,416
2018-03-18T05:39:01.226Z,456
2018-03-18T05:40:01.198Z,456
2018-03-18T05:41:01.458Z,452
2018-03-18T05:42:01.207Z,484
2018-03-18T05:43:01.479Z,560
2018-03-18T05:44:01.483Z,584
2018-03-18T05:45:01.239Z,600
2018-03-18T05:46:01.254Z,652
2018-03-18T05:47:01.012Z,684
2018-03-18T05:48:01.278Z,700
2018-03-18T05:49:01.583Z,736
2018-03-18T05:50:01.296Z,772
2018-03-18T05:51:01.307Z,784
2018-03-18T05:52:01.318Z,804
2018-03-18T05:53:01.331Z,768
2018-03-18T05:54:01.591Z,752
2018-03-18T05:55:01.601Z,780
2018-03-18T05:56:01.618Z,748
2018-03-18T05:57:01.371Z,688
2018-03-18T05:58:01.382Z,684
2018-03-18T05:59:01.405Z,720
2018-03-18T06:00:01.694Z,704
2018-03-18T06:01:01.420Z,712
2018-03-18T06:02:01.177Z,756
2018-03-18T06:03:01.739Z,776
2018-03-18T06:04:01.452Z,856
2018-03-18T06:05:01.459Z,984
2018-03-18T06:06:01.729Z,1024
2018-03-18T06:07:01.493Z,1024
2018-03-18T06:08:01.491Z,1048
2018-03-18T06:09:01.764Z,1076
2018-03-18T06:10:01.770Z,1108
2018-03-18T06:11:01.782Z,1104
2018-03-18T06:12:01.847Z,1160
2018-03-18T06:13:01.558Z,1240
2018-03-18T06:14:01.818Z,1160
2018-03-18T06:15:01.574Z,1152
2018-03-18T06:16:01.344Z,1248
2018-03-18T06:17:01.892Z,1284
2018-03-18T06:18:01.431Z,1452
2018-03-18T06:19:01.872Z,1572
2018-03-18T06:20:01.629Z,1588
2018-03-18T06:21:01.644Z,1556
2018-03-18T06:22:01.917Z,1592
2018-03-18T06:23:01.455Z,1640
2018-03-18T06:24:01.926Z,1664
2018-03-18T06:25:01.518Z,1660
2018-03-18T06:26:01.694Z,1580
2018-03-18T06:27:01.756Z,1616
2018-03-18T06:28:01.720Z,1644
2018-03-18T06:29:01.735Z,1720
2018-03-18T06:30:01.988Z,1680
2018-03-18T06:31:02.001Z,1704
2018-03-18T06:32:01.769Z,1724
2018-03-18T06:33:01.778Z,1788
2018-03-18T06:34:01.809Z,1888
2018-03-18T06:35:02.050Z,1904
2018-03-18T06:36:01.552Z,1932
2018-03-18T06:37:02.119Z,1968
2018-03-18T06:38:01.572Z,1988
2018-03-18T06:39:02.099Z,2056
2018-03-18T06:40:01.851Z,2100
2018-03-18T06:41:02.124Z,2120
2018-03-18T06:42:02.135Z,2068
2018-03-18T06:43:01.888Z,1964
2018-03-18T06:44:02.146Z,1924
2018-03-18T06:45:01.897Z,1996
2018-03-18T06:46:01.907Z,2112
2018-03-18T06:47:02.170Z,2088
2018-03-18T06:48:02.190Z,2192
2018-03-18T06:49:01.942Z,2192
2018-03-18T06:50:01.951Z,2216
2018-03-18T06:51:02.225Z,2220
2018-03-18T06:52:02.474Z,2148
2018-03-18T06:53:01.750Z,2216
2018-03-18T06:54:01.750Z,2276
2018-03-18T06:55:02.012Z,2396
2018-03-18T06:56:01.535Z,2440
2018-03-18T06:57:02.284Z,2440
2018-03-18T06:58:02.293Z,2404
2018-03-18T06:59:02.315Z,2448
2018-03-18T07:00:02.331Z,2568
2018-03-18T07:01:02.337Z,2644
2018-03-18T07:02:02.101Z,2648
2018-03-18T07:03:02.111Z,2636
2018-03-18T07:04:02.434Z,2584
2018-03-18T07:05:02.132Z,2636
2018-03-18T07:06:02.396Z,2720
2018-03-18T07:07:02.157Z,2744
2018-03-18T07:08:02.418Z,2964
2018-03-18T07:09:01.926Z,2948
2018-03-18T07:10:02.442Z,2952
2018-03-18T07:11:02.250Z,2856
2018-03-18T07:12:01.954Z,2964
2018-03-18T07:13:02.216Z,3052
2018-03-18T07:14:02.234Z,3276
2018-03-18T07:15:02.261Z,3280
2018-03-18T07:16:02.256Z,3212
2018-03-18T07:17:02.266Z,3240
2018-03-18T07:18:02.529Z,3280
2018-03-18T07:19:02.555Z,3220
2018-03-18T07:20:02.699Z,3296
2018-03-18T07:21:02.311Z,3328
2018-03-18T07:22:02.319Z,3152
2018-03-18T07:23:02.585Z,3216
2018-03-18T07:24:02.607Z,3256
2018-03-18T07:25:02.356Z,3300
2018-03-18T07:26:02.109Z,3228
2018-03-18T07:27:02.123Z,3156
2018-03-18T07:28:02.391Z,3120
2018-03-18T07:29:02.655Z,3140
2018-03-18T07:30:02.412Z,3092
2018-03-18T07:31:02.428Z,3120
2018-03-18T07:32:02.691Z,3256
2018-03-18T07:33:02.186Z,3288
2018-03-18T07:34:02.713Z,3268
2018-03-18T07:35:02.729Z,3256
2018-03-18T07:36:02.754Z,3144
2018-03-18T07:37:02.738Z,3136
2018-03-18T07:38:02.521Z,3068
2018-03-18T07:39:02.511Z,3096
2018-03-18T07:40:02.827Z,3160
2018-03-18T07:41:02.536Z,3188
2018-03-18T07:42:02.852Z,3152
2018-03-18T07:43:02.818Z,3088
2018-03-18T07:44:02.821Z,3140
2018-03-18T07:45:02.586Z,3296
2018-03-18T07:46:02.592Z,3480
2018-03-18T07:47:02.598Z,3592
2018-03-18T07:48:02.623Z,3648
2018-03-18T07:49:02.878Z,3688
2018-03-18T07:50:02.636Z,3800
2018-03-18T07:51:02.898Z,3956
2018-03-18T07:52:02.691Z,4044
2018-03-18T07:53:02.928Z,4096
2018-03-18T07:54:02.937Z,4156
2018-03-18T07:55:02.747Z,4172
2018-03-18T07:56:02.965Z,4260
2018-03-18T07:57:02.731Z,4264
2018-03-18T07:58:02.984Z,4280
2018-03-18T07:59:02.495Z,4388
2018-03-18T08:00:02.498Z,4468
2018-03-18T08:01:03.026Z,4536
2018-03-18T08:02:02.905Z,4732
2018-03-18T08:03:02.784Z,4896
2018-03-18T08:04:02.802Z,5036
2018-03-18T08:05:02.807Z,5048
2018-03-18T08:06:02.564Z,5064
2018-03-18T08:07:02.827Z,4948
2018-03-18T08:08:02.844Z,4932
2018-03-18T08:09:02.855Z,5088
2018-03-18T08:10:02.874Z,5012
2018-03-18T08:11:03.188Z,4964
2018-03-18T08:12:03.137Z,5072
2018-03-18T08:13:02.895Z,5196
2018-03-18T08:14:02.960Z,5120
2018-03-18T08:15:02.929Z,5252
2018-03-18T08:16:02.678Z,5564
2018-03-18T08:17:02.939Z,5756
2018-03-18T08:18:02.952Z,5948
2018-03-18T08:19:02.985Z,6072
2018-03-18T08:20:03.315Z,6148
2018-03-18T08:21:03.291Z,6248
2018-03-18T08:22:03.003Z,6316
2018-03-18T08:23:02.758Z,6548
2018-03-18T08:24:02.766Z,6820
2018-03-18T08:25:03.281Z,6788
2018-03-18T08:26:03.052Z,6864
2018-03-18T08:27:03.353Z,7064
2018-03-18T08:28:03.065Z,7140
2018-03-18T08:29:03.336Z,7280
2018-03-18T08:30:03.365Z,7496
2018-03-18T08:31:03.099Z,7924
2018-03-18T08:32:03.112Z,8688
2018-03-18T08:33:03.118Z,9332
2018-03-18T08:34:02.880Z,9372
2018-03-18T08:35:03.406Z,9612
2018-03-18T08:36:03.248Z,10316
2018-03-18T08:37:03.440Z,11308
2018-03-18T08:38:03.189Z,11908
2018-03-18T08:39:03.193Z,12300
2018-03-18T08:40:03.209Z,12512
2018-03-18T08:41:03.471Z,13024
2018-03-18T08:42:03.496Z,13196
2018-03-18T08:43:03.139Z,13560
2018-03-18T08:44:03.251Z,14580
2018-03-18T08:45:03.258Z,15248
2018-03-18T08:46:03.544Z,15384
2018-03-18T08:47:03.536Z,15628
2018-03-18T08:48:03.600Z,15832
2018-03-18T08:49:03.571Z,16832
2018-03-18T08:50:03.332Z,17408
2018-03-18T08:51:03.587Z,17440
2018-03-18T08:52:03.359Z,16640
2018-03-18T08:53:03.626Z,15688
2018-03-18T08:54:03.637Z,15840
2018-03-18T08:55:03.644Z,16296
2018-03-18T08:56:03.683Z,16164
2018-03-18T08:57:02.912Z,15272
2018-03-18T08:58:03.177Z,14292
2018-03-18T08:59:03.450Z,13420
2018-03-18T09:00:03.520Z,12180
2018-03-18T09:01:03.732Z,11168
2018-03-18T09:02:03.490Z,10476
2018-03-18T09:03:03.244Z,10292
2018-03-18T09:04:03.774Z,9848
2018-03-18T09:05:03.791Z,9052
2018-03-18T09:06:03.553Z,8868
2018-03-18T09:07:03.809Z,9196
2018-03-18T09:08:03.828Z,9700
2018-03-18T09:09:03.331Z,9808
2018-03-18T09:10:03.889Z,9532
2018-03-18T09:11:03.917Z,9076
2018-03-18T09:12:03.887Z,8244
2018-03-18T09:13:03.581Z,8408
2018-03-18T09:14:03.650Z,8412
2018-03-18T09:15:03.461Z,8292
2018-03-18T09:16:03.423Z,8224
2018-03-18T09:17:03.938Z,8364
2018-03-18T09:18:03.971Z,8804
2018-03-18T09:19:03.970Z,9604
2018-03-18T09:20:03.981Z,9992
2018-03-18T09:21:03.740Z,9904
2018-03-18T09:22:03.494Z,9432
2018-03-18T09:23:04.162Z,9240
2018-03-18T09:24:03.779Z,9036
2018-03-18T09:25:04.055Z,8648
2018-03-18T09:26:04.056Z,8392
2018-03-18T09:27:03.816Z,8284
2018-03-18T09:28:03.845Z,8564
2018-03-18T09:29:04.103Z,8284
2018-03-18T09:30:03.865Z,7976
2018-03-18T09:31:03.880Z,7424
2018-03-18T09:32:03.637Z,7312
2018-03-18T09:33:03.917Z,7632
2018-03-18T09:34:03.971Z,8048
2018-03-18T09:35:03.928Z,8352
2018-03-18T09:36:04.202Z,8448
2018-03-18T09:37:03.700Z,8420
2018-03-18T09:38:03.969Z,8236
2018-03-18T09:39:03.988Z,8480
2018-03-18T09:40:03.996Z,9208
2018-03-18T09:41:04.010Z,10100
2018-03-18T09:42:04.272Z,10844
2018-03-18T09:43:03.781Z,10924
2018-03-18T09:44:04.055Z,11004
2018-03-18T09:45:03.808Z,11392
2018-03-18T09:46:04.075Z,12092
2018-03-18T09:47:03.843Z,11868
2018-03-18T09:48:04.097Z,12260
2018-03-18T09:49:04.370Z,13236
2018-03-18T09:50:04.372Z,13768
2018-03-18T09:51:04.404Z,13796
2018-03-18T09:52:04.414Z,13852
2018-03-18T09:53:04.413Z,13436
2018-03-18T09:54:04.170Z,13008
2018-03-18T09:55:04.187Z,12944
2018-03-18T09:56:04.467Z,12912
2018-03-18T09:57:04.438Z,12672
2018-03-18T09:58:04.203Z,12364
2018-03-18T09:59:04.467Z,12688
2018-03-18T10:00:04.054Z,12976
2018-03-18T10:01:04.521Z,12816
2018-03-18T10:02:04.314Z,12304
2018-03-18T10:03:04.556Z,11804
2018-03-18T10:04:04.307Z,11576
2018-03-18T10:05:04.321Z,11604
2018-03-18T10:06:04.333Z,11912
2018-03-18T10:07:04.356Z,12644
2018-03-18T10:08:04.352Z,13040
2018-03-18T10:09:04.369Z,13504
2018-03-18T10:10:03.905Z,13548
2018-03-18T10:11:04.649Z,13932
2018-03-18T10:12:04.658Z,14312
2018-03-18T10:13:04.167Z,14008
2018-03-18T10:14:04.888Z,13616
2018-03-18T10:15:04.732Z,13468
2018-03-18T10:16:04.462Z,13356
2018-03-18T10:17:04.478Z,13688
2018-03-18T10:18:04.235Z,13700
2018-03-18T10:19:04.507Z,12936
2018-03-18T10:20:04.533Z,12224
2018-03-18T10:21:04.538Z,11768
2018-03-18T10:22:04.560Z,11448
2018-03-18T10:23:04.812Z,11068
2018-03-18T10:24:04.061Z,11044
2018-03-18T10:25:04.591Z,11024
2018-03-18T10:26:04.601Z,10548
2018-03-18T10:27:04.876Z,10144
2018-03-18T10:28:04.636Z,10448
2018-03-18T10:29:04.901Z,10736
2018-03-18T10:30:04.654Z,10908
2018-03-18T10:31:04.920Z,11132
2018-03-18T10:32:04.826Z,11324
2018-03-18T10:33:04.746Z,11380
2018-03-18T10:34:04.716Z,11504
2018-03-18T10:35:04.721Z,11852
2018-03-18T10:36:04.735Z,12320
2018-03-18T10:37:04.839Z,13180
2018-03-18T10:38:04.505Z,14428
2018-03-18T10:39:05.033Z,16184
2018-03-18T10:40:05.062Z,17696
2018-03-18T10:41:05.071Z,18464
2018-03-18T10:42:05.414Z,18816
2018-03-18T10:43:04.585Z,18016
2018-03-18T10:44:04.587Z,17024
2018-03-18T10:45:04.869Z,16080
2018-03-18T10:46:05.123Z,15516
2018-03-18T10:47:04.940Z,15324
2018-03-18T10:48:04.644Z,15500
2018-03-18T10:49:05.196Z,15436
2018-03-18T10:50:05.180Z,15156
2018-03-18T10:51:04.696Z,14848
2018-03-18T10:52:04.705Z,14412
2018-03-18T10:53:04.965Z,14316
2018-03-18T10:54:05.236Z,14240
2018-03-18T10:55:05.265Z,13820
2018-03-18T10:56:05.316Z,13152
2018-03-18T10:57:05.021Z,12600
2018-03-18T10:58:05.047Z,12176
2018-03-18T10:59:04.559Z,12556
2018-03-18T11:00:05.066Z,13124
2018-03-18T11:01:05.092Z,13172
2018-03-18T11:02:05.167Z,12600
2018-03-18T11:03:05.107Z,12408
2018-03-18T11:04:05.134Z,12508
2018-03-18T11:05:04.629Z,12920
2018-03-18T11:06:04.642Z,13600
2018-03-18T11:07:05.170Z,14444
2018-03-18T11:08:05.185Z,15160
2018-03-18T11:09:05.598Z,15404
2018-03-18T11:10:04.699Z,14872
2018-03-18T11:11:05.224Z,14576
2018-03-18T11:12:04.987Z,14848
2018-03-18T11:13:04.743Z,15028
2018-03-18T11:14:05.265Z,15080
2018-03-18T11:15:05.074Z,15172
2018-03-18T11:16:05.315Z,14892
2018-03-18T11:17:05.054Z,14264
2018-03-18T11:18:05.600Z,13880
2018-03-18T11:19:05.581Z,14036
2018-03-18T11:20:05.420Z,14308
2018-03-18T11:21:05.360Z,14400
2018-03-18T11:22:05.120Z,13828
2018-03-18T11:23:05.393Z,13172
2018-03-18T11:24:05.403Z,12668
2018-03-18T11:25:05.672Z,12544
2018-03-18T11:26:05.429Z,12492
2018-03-18T11:27:04.940Z,12608
2018-03-18T11:28:05.467Z,12648
2018-03-18T11:29:05.728Z,12956
2018-03-18T11:30:05.834Z,13120
2018-03-18T11:31:05.504Z,13516
2018-03-18T11:32:05.773Z,13888
2018-03-18T11:33:05.823Z,14040
2018-03-18T11:34:05.553Z,13672
2018-03-18T11:35:05.816Z,13116
2018-03-18T11:36:05.861Z,13168
2018-03-18T11:37:05.362Z,13560
2018-03-18T11:38:05.925Z,13940
2018-03-18T11:39:05.631Z,14028
2018-03-18T11:40:05.643Z,14104
2018-03-18T11:41:05.395Z,14616
2018-03-18T11:42:05.658Z,15304
2018-03-18T11:43:05.680Z,16060
2018-03-18T11:44:05.692Z,16864
2018-03-18T11:45:05.455Z,17152
2018-03-18T11:46:05.723Z,17952
2018-03-18T11:47:05.987Z,18208
2018-03-18T11:48:05.757Z,17504
2018-03-18T11:49:05.790Z,16704
2018-03-18T11:50:05.784Z,16184
2018-03-18T11:51:05.542Z,15464
2018-03-18T11:52:05.558Z,14992
2018-03-18T11:53:06.137Z,15236
2018-03-18T11:54:05.847Z,15636
2018-03-18T11:55:06.124Z,16244
2018-03-18T11:56:05.992Z,15844
2018-03-18T11:57:06.127Z,15184
2018-03-18T11:58:05.885Z,14516
2018-03-18T11:59:05.656Z,14176
2018-03-18T12:00:06.179Z,13800
2018-03-18T12:01:06.229Z,13140
2018-03-18T12:02:06.230Z,12236
2018-03-18T12:03:05.975Z,11732
2018-03-18T12:04:05.989Z,11832
2018-03-18T12:05:06.258Z,12608
2018-03-18T12:06:06.277Z,12936
2018-03-18T12:07:05.781Z,12800
2018-03-18T12:08:05.795Z,12928
2018-03-18T12:09:06.063Z,12940
2018-03-18T12:10:06.136Z,12784
2018-03-18T12:11:06.104Z,13032
2018-03-18T12:12:06.364Z,13680
2018-03-18T12:13:06.397Z,14068
2018-03-18T12:14:06.131Z,15016
2018-03-18T12:15:06.406Z,15736
2018-03-18T12:16:06.170Z,14676
2018-03-18T12:17:06.176Z,13752
2018-03-18T12:18:06.198Z,13376
2018-03-18T12:19:05.964Z,13700
2018-03-18T12:20:06.221Z,13888
2018-03-18T12:21:05.985Z,13656
2018-03-18T12:22:05.746Z,13984
2018-03-18T12:23:06.273Z,14356
2018-03-18T12:24:05.777Z,13724
2018-03-18T12:25:06.554Z,13212
2018-03-18T12:26:06.571Z,13288
2018-03-18T12:27:06.357Z,12196
2018-03-18T12:28:05.848Z,11328
2018-03-18T12:29:06.093Z,11060
2018-03-18T12:30:06.383Z,11424
2018-03-18T12:31:06.646Z,12292
2018-03-18T12:32:06.660Z,12740
2018-03-18T12:33:06.678Z,13240
2018-03-18T12:34:06.437Z,13640
2018-03-18T12:35:06.200Z,13912
2018-03-18T12:36:06.481Z,13368
2018-03-18T12:37:05.971Z,12116
2018-03-18T12:38:06.798Z,11396
2018-03-18T12:39:06.583Z,10884
2018-03-18T12:40:06.780Z,10424
2018-03-18T12:41:06.532Z,9944
2018-03-18T12:42:06.600Z,9572
2018-03-18T12:43:06.797Z,9736
2018-03-18T12:44:06.562Z,10152
2018-03-18T12:45:06.596Z,10468
2018-03-18T12:46:06.877Z,10488
2018-03-18T12:47:06.627Z,10064
2018-03-18T12:48:06.644Z,9660
2018-03-18T12:49:06.651Z,9772
2018-03-18T12:50:06.934Z,9832
2018-03-18T12:51:06.679Z,9632
2018-03-18T12:52:06.702Z,9596
2018-03-18T12:53:06.456Z,9520
2018-03-18T12:54:06.990Z,9468
2018-03-18T12:55:07.028Z,9432
2018-03-18T12:56:06.753Z,9264
2018-03-18T12:57:06.833Z,9272
2018-03-18T12:58:06.785Z,9604
2018-03-18T12:59:06.793Z,9912
2018-03-18T13:00:07.065Z,10004
2018-03-18T13:01:06.824Z,10240
2018-03-18T13:02:06.906Z,10468
2018-03-18T13:03:06.851Z,10772
2018-03-18T13:04:06.868Z,10192
2018-03-18T13:05:06.645Z,9644
2018-03-18T13:06:06.943Z,9288
2018-03-18T13:07:07.163Z,9264
2018-03-18T13:08:06.930Z,9500
2018-03-18T13:09:06.430Z,9768
2018-03-18T13:10:07.207Z,10168
2018-03-18T13:11:07.219Z,10400
2018-03-18T13:12:06.978Z,10576
2018-03-18T13:13:07.241Z,10560
2018-03-18T13:14:07.012Z,10152
2018-03-18T13:15:06.763Z,10164
2018-03-18T13:16:07.023Z,10452
2018-03-18T13:17:07.378Z,10412
2018-03-18T13:18:07.079Z,9892
2018-03-18T13:19:07.064Z,9436
2018-03-18T13:20:07.130Z,9108
2018-03-18T13:21:07.100Z,9020
2018-03-18T13:22:07.108Z,9160
2018-03-18T13:23:07.119Z,9444
2018-03-18T13:24:07.135Z,9476
2018-03-18T13:25:06.895Z,9348
2018-03-18T13:26:07.411Z,9400
2018-03-18T13:27:06.942Z,9624
2018-03-18T13:28:07.272Z,9608
2018-03-18T13:29:07.469Z,9472
2018-03-18T13:30:06.982Z,9320
2018-03-18T13:31:07.548Z,9128
2018-03-18T13:32:07.256Z,9140
2018-03-18T13:33:07.529Z,9248
2018-03-18T13:34:07.539Z,9188
2018-03-18T13:35:07.560Z,9064
2018-03-18T13:36:07.310Z,9064
2018-03-18T13:37:07.658Z,8972
2018-03-18T13:38:07.595Z,8608
2018-03-18T13:39:07.659Z,8300
2018-03-18T13:40:07.376Z,8116
2018-03-18T13:41:07.638Z,7948
2018-03-18T13:42:07.651Z,7616
2018-03-18T13:43:07.741Z,7620
2018-03-18T13:44:07.422Z,7868
2018-03-18T13:45:07.714Z,7944